Time;durP1;ratioP1;P1;durP2;ratioP2;P2;SDS_P1;SDS_P2;PMS_P1;PMS_P2;Temp;Humidity;BMP_temperature;BMP_pressure;BME280_temperature;BME280_humidity;BME280_pressure;Samples;Min_cycle;Max_cycle;Signal;HPM_P1;HPM_P2
2022/09/16 00:00:14;;;;;;;13.88;7.25;;;;;;;;;;5029747;28;20088;-56
2022/09/16 00:02:40;;;;;;;13.73;7.35;;;;;;;;;;5028936;28;20033;-56
2022/09/16 00:05:06;;;;;;;10.23;6.82;;;;;;;;;;5027826;28;20041;-57
2022/09/16 00:07:32;;;;;;;11.75;6.60;;;;;;;;;;5029692;28;20538;-56
2022/09/16 00:09:57;;;;;;;10.43;6.20;;;;;;;;;;5034627;28;20029;-57
2022/09/16 00:12:22;;;;;;;8.10;6.35;;;;;;;;;;5029226;28;20527;-56
2022/09/16 00:14:48;;;;;;;14.82;7.07;;;;;;;;;;5035797;28;20067;-56
2022/09/16 00:17:13;;;;;;;11.30;7.13;;;;;;;;;;5028989;28;20033;-57
2022/09/16 00:19:39;;;;;;;9.95;7.10;;;;;;;;;;5028379;28;20029;-57
2022/09/16 00:22:04;;;;;;;12.63;7.35;;;;;;;;;;5030708;28;20528;-57
2022/09/16 00:24:30;;;;;;;11.88;7.53;;;;;;;;;;5030999;28;20588;-57
2022/09/16 00:26:55;;;;;;;14.23;7.63;;;;;;;;;;5026718;28;20100;-57
2022/09/16 00:29:21;;;;;;;12.68;8.10;;;;;;;;;;5031990;28;20108;-56
2022/09/16 00:31:46;;;;;;;11.68;6.93;;;;;;;;;;5027404;28;20559;-57
2022/09/16 00:34:11;;;;;;;11.43;7.30;;;;;;;;;;5026571;28;20668;-57
2022/09/16 00:36:37;;;;;;;10.60;6.75;;;;;;;;;;5028223;28;20021;-57
2022/09/16 00:39:02;;;;;;;11.20;6.88;;;;;;;;;;5030135;28;20112;-57
2022/09/16 00:41:32;;;;;;;11.32;6.72;;;;;;;;;;5027533;28;20025;-56
2022/09/16 00:44:02;;;;;;;11.35;6.60;;;;;;;;;;5029281;28;20418;-57
2022/09/16 00:46:44;;;;;;;9.73;6.72;;;;;;;;;;5031573;28;20029;-56
2022/09/16 00:49:17;;;;;;;9.60;5.97;;;;;;;;;;5032370;28;20056;-57
2022/09/16 00:51:46;;;;;;;13.50;7.10;;;;;;;;;;5034031;28;20049;-57
2022/09/16 00:54:13;;;;;;;9.40;6.90;;;;;;;;;;5030525;28;20487;-56
2022/09/16 00:56:41;;;;;;;9.55;6.43;;;;;;;;;;5031292;28;20541;-56
2022/09/16 00:59:07;;;;;;;11.43;6.55;;;;;;;;;;5026302;28;20030;-56
2022/09/16 01:01:33;;;;;;;13.02;6.93;;;;;;;;;;5032107;28;20467;-56
2022/09/16 01:04:05;;;;;;;9.93;6.05;;;;;;;;;;5030808;28;20022;-56
2022/09/16 01:06:34;;;;;;;11.65;6.43;;;;;;;;;;5031811;28;20111;-56
2022/09/16 01:09:00;;;;;;;10.82;6.35;;;;;;;;;;5033194;28;20018;-56
2022/09/16 01:11:25;;;;;;;9.52;6.97;;;;;;;;;;5031871;28;20036;-56
2022/09/16 01:13:51;;;;;;;11.40;6.90;;;;;;;;;;5038786;28;20021;-56
2022/09/16 01:16:31;;;;;;;10.77;6.30;;;;;;;;;;5033312;28;20136;-56
2022/09/16 01:19:08;;;;;;;;;;;;;;;;;;5031426;28;20033;-56
2022/09/16 01:21:44;;;;;;;11.10;6.13;;;;;;;;;;5031777;28;19912;-56
2022/09/16 01:24:34;;;;;;;10.70;6.55;;;;;;;;;;5025005;28;20112;-56
2022/09/16 01:27:47;;;;;;;10.70;6.70;;;;;;;;;;5034391;28;20029;-56
2022/09/16 01:30:37;;;;;;;18.55;6.78;;;;;;;;;;4993532;28;20030;-56
2022/09/16 01:33:03;;;;;;;11.75;6.25;;;;;;;;;;5030725;28;20439;-56
2022/09/16 01:35:29;;;;;;;9.10;6.15;;;;;;;;;;5031725;28;20079;-56
2022/09/16 01:38:28;;;;;;;11.75;6.78;;;;;;;;;;5034607;28;20037;-56
2022/09/16 01:41:20;;;;;;;12.25;7.18;;;;;;;;;;5029296;28;20065;-56
2022/09/16 01:44:02;;;;;;;10.02;6.43;;;;;;;;;;5030242;28;20064;-56
2022/09/16 01:46:40;;;;;;;12.18;6.80;;;;;;;;;;5037643;28;20049;-56
2022/09/16 01:49:33;;;;;;;10.85;7.00;;;;;;;;;;5033828;28;20112;-57
2022/09/16 01:52:07;;;;;;;14.55;6.47;;;;;;;;;;5031005;28;20584;-56
2022/09/16 01:54:37;;;;;;;10.55;6.75;;;;;;;;;;5031204;28;20095;-56
2022/09/16 01:57:10;;;;;;;12.57;6.47;;;;;;;;;;5032811;28;20622;-56
2022/09/16 01:59:59;;;;;;;12.93;7.38;;;;;;;;;;5030896;28;20021;-57
2022/09/16 02:02:32;;;;;;;11.95;7.28;;;;;;;;;;5029777;28;20068;-57
2022/09/16 02:05:02;;;;;;;11.82;7.20;;;;;;;;;;5030323;28;20038;-56
2022/09/16 02:07:32;;;;;;;15.77;6.75;;;;;;;;;;5030916;28;20037;-56
2022/09/16 02:10:09;;;;;;;15.50;7.70;;;;;;;;;;5035005;28;20025;-58
2022/09/16 02:12:40;;;;;;;11.57;6.97;;;;;;;;;;5030277;28;20029;-56
2022/09/16 02:15:10;;;;;;;12.15;7.93;;;;;;;;;;5030379;28;20083;-57
2022/09/16 02:17:39;;;;;;;12.07;7.78;;;;;;;;;;5034162;28;20525;-56
2022/09/16 02:20:10;;;;;;;12.98;6.97;;;;;;;;;;5037712;28;20116;-56
2022/09/16 02:22:40;;;;;;;10.52;7.60;;;;;;;;;;5029159;28;20041;-56
2022/09/16 02:25:07;;;;;;;13.13;7.57;;;;;;;;;;5035444;28;20025;-56
2022/09/16 02:27:37;;;;;;;12.25;7.45;;;;;;;;;;5034333;28;20029;-56
2022/09/16 02:30:07;;;;;;;11.50;7.75;;;;;;;;;;5030428;28;20025;-56
2022/09/16 02:32:38;;;;;;;13.20;7.05;;;;;;;;;;5027580;28;20107;-56
2022/09/16 02:35:06;;;;;;;11.68;7.10;;;;;;;;;;5032420;28;20022;-56
2022/09/16 02:37:38;;;;;;;11.50;6.97;;;;;;;;;;5030302;28;20037;-56
2022/09/16 02:40:10;;;;;;;11.52;7.22;;;;;;;;;;5031267;28;20029;-56
2022/09/16 02:42:35;;;;;;;13.18;7.72;;;;;;;;;;5031878;28;20126;-56
2022/09/16 02:45:02;;;;;;;10.20;7.63;;;;;;;;;;5030953;28;20494;-56
2022/09/16 02:47:34;;;;;;;12.88;7.15;;;;;;;;;;5034169;28;20044;-56
2022/09/16 02:50:09;;;;;;;9.15;6.50;;;;;;;;;;5031171;28;20025;-56
2022/09/16 02:52:38;;;;;;;10.50;7.30;;;;;;;;;;5029828;28;20104;-56
2022/09/16 02:55:29;;;;;;;14.55;6.95;;;;;;;;;;5032305;28;20021;-56
2022/09/16 02:57:54;;;;;;;9.32;6.90;;;;;;;;;;5026634;28;20049;-56
2022/09/16 03:00:20;;;;;;;10.43;6.95;;;;;;;;;;5030834;28;20033;-56
2022/09/16 03:02:45;;;;;;;10.65;6.93;;;;;;;;;;5029477;28;20128;-56
2022/09/16 03:05:11;;;;;;;14.20;7.70;;;;;;;;;;5034733;28;20029;-57
2022/09/16 03:07:40;;;;;;;10.90;7.07;;;;;;;;;;5029320;28;20025;-57
2022/09/16 03:10:07;;;;;;;16.20;7.25;;;;;;;;;;5036249;28;20035;-56
2022/09/16 03:12:51;;;;;;;11.27;7.07;;;;;;;;;;5031161;28;20033;-57
2022/09/16 03:15:16;;;;;;;13.45;6.60;;;;;;;;;;5028753;28;20037;-56
2022/09/16 03:18:21;;;;;;;12.02;6.95;;;;;;;;;;5030282;28;20395;-56
2022/09/16 03:20:53;;;;;;;9.45;6.75;;;;;;;;;;5028838;28;20021;-56
2022/09/16 03:23:48;;;;;;;10.50;7.05;;;;;;;;;;5027348;28;20445;-56
2022/09/16 03:26:16;;;;;;;11.27;7.13;;;;;;;;;;5029037;28;20033;-58
2022/09/16 03:29:03;;;;;;;12.05;6.60;;;;;;;;;;5029165;28;20033;-56
2022/09/16 03:31:33;;;;;;;12.05;8.18;;;;;;;;;;5025754;28;20104;-56
2022/09/16 03:34:07;;;;;;;;;;;;;;;;;;5029291;28;20029;-56
2022/09/16 03:36:42;;;;;;;13.93;8.10;;;;;;;;;;5025710;28;19943;-57
2022/09/16 03:39:10;;;;;;;13.20;8.18;;;;;;;;;;5028990;28;20037;-56
2022/09/16 03:41:35;;;;;;;11.57;7.93;;;;;;;;;;5030318;28;20037;-57
2022/09/16 03:44:01;;;;;;;11.77;7.88;;;;;;;;;;5028843;28;20514;-56
2022/09/16 03:46:27;;;;;;;13.90;7.95;;;;;;;;;;5030214;28;20229;-57
2022/09/16 03:48:54;;;;;;;15.27;8.07;;;;;;;;;;5030106;28;20112;-57
2022/09/16 03:51:19;;;;;;;13.43;7.88;;;;;;;;;;5029648;28;20368;-57
2022/09/16 03:53:45;;;;;;;15.13;8.18;;;;;;;;;;5030728;28;20021;-56
2022/09/16 03:56:10;;;;;;;11.90;8.25;;;;;;;;;;5031382;28;20021;-56
2022/09/16 03:58:36;;;;;;;13.55;8.10;;;;;;;;;;5029163;28;20033;-56
2022/09/16 04:01:01;;;;;;;14.55;8.73;;;;;;;;;;5029897;28;20025;-56
2022/09/16 04:03:26;;;;;;;12.32;8.73;;;;;;;;;;5028967;28;20032;-56
2022/09/16 04:05:53;;;;;;;15.50;8.73;;;;;;;;;;5029280;28;20521;-56
2022/09/16 04:08:18;;;;;;;15.48;8.82;;;;;;;;;;5028669;28;20112;-56
2022/09/16 04:10:55;;;;;;;13.80;7.95;;;;;;;;;;5028235;28;20212;-56
2022/09/16 04:13:20;;;;;;;12.68;7.97;;;;;;;;;;5026213;28;20039;-56
2022/09/16 04:15:46;;;;;;;14.68;8.20;;;;;;;;;;5027528;28;20021;-55
2022/09/16 04:18:11;;;;;;;13.82;8.52;;;;;;;;;;5031324;28;20102;-56
2022/09/16 04:20:36;;;;;;;12.10;8.00;;;;;;;;;;5028608;28;20021;-56
2022/09/16 04:23:02;;;;;;;13.85;8.60;;;;;;;;;;5029296;28;20037;-56
2022/09/16 04:25:27;;;;;;;13.88;9.23;;;;;;;;;;5031778;28;20364;-57
2022/09/16 04:27:53;;;;;;;15.30;9.07;;;;;;;;;;5031139;28;20034;-57
2022/09/16 04:30:19;;;;;;;11.60;7.63;;;;;;;;;;5028983;28;20124;-59
2022/09/16 04:32:44;;;;;;;11.70;7.30;;;;;;;;;;5033124;28;20040;-59
2022/09/16 04:35:10;;;;;;;13.50;7.72;;;;;;;;;;5028356;28;20017;-59
2022/09/16 04:37:35;;;;;;;13.48;7.72;;;;;;;;;;5027842;28;20033;-59
2022/09/16 04:40:01;;;;;;;11.85;7.15;;;;;;;;;;5029244;28;20115;-59
2022/09/16 04:42:26;;;;;;;14.38;8.02;;;;;;;;;;5027834;28;20390;-59
2022/09/16 04:44:52;;;;;;;10.32;7.43;;;;;;;;;;5027831;28;20068;-60
2022/09/16 04:47:17;;;;;;;12.32;7.55;;;;;;;;;;5029226;28;20060;-59
2022/09/16 04:49:42;;;;;;;13.18;7.55;;;;;;;;;;5029520;28;20578;-59
2022/09/16 04:52:08;;;;;;;12.00;7.10;;;;;;;;;;5027283;28;20455;-59
2022/09/16 04:54:33;;;;;;;13.95;8.07;;;;;;;;;;5029407;28;20095;-60
2022/09/16 04:57:00;;;;;;;10.23;7.80;;;;;;;;;;5028385;28;20029;-60
2022/09/16 04:59:25;;;;;;;15.18;8.27;;;;;;;;;;5027221;28;20036;-56
2022/09/16 05:01:51;;;;;;;14.57;8.77;;;;;;;;;;5027158;28;20029;-60
2022/09/16 05:04:16;;;;;;;13.80;7.97;;;;;;;;;;5031198;28;20033;-59
2022/09/16 05:06:43;;;;;;;15.23;9.23;;;;;;;;;;5026302;28;20033;-60
2022/09/16 05:09:10;;;;;;;14.55;8.48;;;;;;;;;;5036338;28;20025;-60
2022/09/16 05:11:37;;;;;;;15.23;9.10;;;;;;;;;;5026911;28;20048;-60
2022/09/16 05:14:06;;;;;;;14.07;7.50;;;;;;;;;;5029658;28;20387;-60
2022/09/16 05:16:32;;;;;;;12.82;8.50;;;;;;;;;;5028709;28;20038;-60
2022/09/16 05:18:59;;;;;;;14.48;8.52;;;;;;;;;;5027986;28;20424;-60
2022/09/16 05:21:26;;;;;;;16.23;9.07;;;;;;;;;;5027830;28;20033;-60
2022/09/16 05:23:51;;;;;;;14.23;9.02;;;;;;;;;;5026078;28;20091;-60
2022/09/16 05:26:25;;;;;;;13.05;9.13;;;;;;;;;;5025023;28;20487;-60
2022/09/16 05:28:51;;;;;;;14.02;8.63;;;;;;;;;;5027070;28;20029;-60
2022/09/16 05:31:23;;;;;;;15.63;8.35;;;;;;;;;;5029478;28;20544;-60
2022/09/16 05:33:58;;;;;;;14.70;7.30;;;;;;;;;;5031505;28;20037;-60
2022/09/16 05:36:25;;;;;;;10.88;6.82;;;;;;;;;;5033770;28;20022;-60
2022/09/16 05:38:50;;;;;;;11.88;7.63;;;;;;;;;;5035007;28;20071;-60
2022/09/16 05:41:16;;;;;;;11.57;8.30;;;;;;;;;;5030771;28;20026;-60
2022/09/16 05:43:41;;;;;;;11.40;7.25;;;;;;;;;;5035448;28;20033;-60
2022/09/16 05:46:07;;;;;;;13.85;7.55;;;;;;;;;;5033049;28;20036;-60
2022/09/16 05:48:34;;;;;;;11.85;7.18;;;;;;;;;;5030040;28;20430;-60
2022/09/16 05:51:02;;;;;;;12.98;7.85;;;;;;;;;;5030757;28;20525;-60
2022/09/16 05:53:28;;;;;;;13.68;7.65;;;;;;;;;;5029949;28;20439;-60
2022/09/16 05:55:59;;;;;;;13.60;8.50;;;;;;;;;;5031235;28;20029;-60
2022/09/16 05:58:25;;;;;;;11.50;7.60;;;;;;;;;;5032663;28;20021;-60
2022/09/16 06:00:56;;;;;;;12.20;7.35;;;;;;;;;;5031926;28;20025;-60
2022/09/16 06:03:21;;;;;;;13.13;7.05;;;;;;;;;;5031020;28;20388;-58
2022/09/16 06:05:47;;;;;;;10.70;7.53;;;;;;;;;;5029204;28;20087;-59
2022/09/16 06:08:12;;;;;;;13.68;7.60;;;;;;;;;;5029871;28;20064;-59
2022/09/16 06:10:39;;;;;;;11.90;7.55;;;;;;;;;;5034271;28;20032;-59
2022/09/16 06:13:05;;;;;;;15.02;8.07;;;;;;;;;;5031132;28;20033;-59
2022/09/16 06:15:30;;;;;;;14.93;7.88;;;;;;;;;;5030725;28;20030;-59
2022/09/16 06:17:57;;;;;;;12.77;7.88;;;;;;;;;;5031698;28;20064;-59
2022/09/16 06:20:23;;;;;;;12.88;8.20;;;;;;;;;;5029310;28;20058;-60
2022/09/16 06:22:48;;;;;;;13.20;8.35;;;;;;;;;;5027641;28;20033;-61
2022/09/16 06:25:13;;;;;;;14.35;8.30;;;;;;;;;;5030645;28;20419;-61
2022/09/16 06:27:39;;;;;;;15.80;8.70;;;;;;;;;;5027512;28;20021;-61
2022/09/16 06:30:04;;;;;;;14.10;7.97;;;;;;;;;;5032410;28;20433;-61
2022/09/16 06:32:30;;;;;;;10.70;7.35;;;;;;;;;;5028471;28;20037;-61
2022/09/16 06:34:56;;;;;;;13.38;8.70;;;;;;;;;;5028777;28;20029;-61
2022/09/16 06:37:21;;;;;;;11.50;8.13;;;;;;;;;;5028067;28;20519;-61
2022/09/16 06:39:47;;;;;;;14.07;9.85;;;;;;;;;;5028237;28;20035;-61
2022/09/16 06:42:12;;;;;;;15.52;9.18;;;;;;;;;;5025875;28;20057;-61
2022/09/16 06:44:37;;;;;;;13.02;8.10;;;;;;;;;;5027736;28;20045;-62
2022/09/16 06:47:03;;;;;;;14.52;7.57;;;;;;;;;;5027795;28;20075;-62
2022/09/16 06:49:28;;;;;;;12.07;6.72;;;;;;;;;;5030042;28;20075;-61
2022/09/16 06:51:54;;;;;;;10.50;5.78;;;;;;;;;;5026640;28;20037;-61
2022/09/16 06:54:19;;;;;;;12.57;5.40;;;;;;;;;;5027941;28;20044;-61
2022/09/16 06:56:44;;;;;;;13.43;5.50;;;;;;;;;;5029404;28;20105;-60
2022/09/16 06:59:13;;;;;;;10.27;5.90;;;;;;;;;;5030278;28;20033;-61
2022/09/16 07:01:38;;;;;;;9.07;5.18;;;;;;;;;;5029943;28;20104;-61
2022/09/16 07:04:09;;;;;;;10.90;6.10;;;;;;;;;;5028309;28;20033;-61
2022/09/16 07:06:35;;;;;;;11.32;5.88;;;;;;;;;;5028619;28;20040;-62
2022/09/16 07:09:01;;;;;;;12.02;5.93;;;;;;;;;;5031077;28;20017;-63
2022/09/16 07:11:27;;;;;;;9.77;5.95;;;;;;;;;;5030884;28;20534;-63
2022/09/16 07:13:53;;;;;;;10.13;5.45;;;;;;;;;;5031021;28;20025;-63
2022/09/16 07:16:25;;;;;;;13.82;5.30;;;;;;;;;;5030429;28;20021;-63
2022/09/16 07:18:58;;;;;;;10.18;5.07;;;;;;;;;;5031567;28;20087;-63
2022/09/16 07:21:28;;;;;;;7.70;4.70;;;;;;;;;;5029746;28;20029;-64
2022/09/16 07:23:55;;;;;;;7.93;4.53;;;;;;;;;;5030282;28;20121;-64
2022/09/16 07:26:25;;;;;;;8.25;4.78;;;;;;;;;;5030721;28;20028;-63
2022/09/16 07:28:51;;;;;;;11.50;5.03;;;;;;;;;;5031052;28;20102;-63
2022/09/16 07:31:25;;;;;;;7.68;4.60;;;;;;;;;;5032811;28;20560;-63
2022/09/16 07:33:51;;;;;;;8.93;4.70;;;;;;;;;;5035400;28;20055;-62
2022/09/16 07:36:20;;;;;;;9.88;5.10;;;;;;;;;;5025447;28;20094;-62
2022/09/16 07:38:47;;;;;;;9.18;4.47;;;;;;;;;;5034032;28;20033;-62
2022/09/16 07:41:14;;;;;;;9.70;4.68;;;;;;;;;;5038512;28;20099;-61
2022/09/16 07:43:41;;;;;;;6.90;4.47;;;;;;;;;;5033893;28;20033;-61
2022/09/16 07:46:09;;;;;;;14.43;5.47;;;;;;;;;;5026123;28;20021;-61
2022/09/16 07:48:35;;;;;;;10.38;5.60;;;;;;;;;;5027295;28;20087;-62
2022/09/16 07:51:03;;;;;;;8.82;4.78;;;;;;;;;;5026979;28;20407;-62
2022/09/16 07:53:30;;;;;;;9.53;5.03;;;;;;;;;;5026806;28;20064;-62
2022/09/16 07:55:59;;;;;;;11.48;4.80;;;;;;;;;;5029635;28;20036;-62
2022/09/16 07:58:25;;;;;;;;;;;;;;;;;;5028733;28;20791;-62
2022/09/16 08:00:50;;;;;;;6.63;4.45;;;;;;;;;;5027320;28;20003;-61
2022/09/16 08:03:16;;;;;;;8.20;4.35;;;;;;;;;;5028250;28;20109;-61
2022/09/16 08:05:42;;;;;;;10.80;4.72;;;;;;;;;;5027649;28;20029;-60
2022/09/16 08:08:07;;;;;;;9.02;4.00;;;;;;;;;;5028940;28;20040;-61
2022/09/16 08:10:35;;;;;;;10.30;4.95;;;;;;;;;;5031386;28;20174;-60
2022/09/16 08:13:01;;;;;;;6.53;4.32;;;;;;;;;;5029914;28;20395;-61
2022/09/16 08:15:26;;;;;;;9.43;4.53;;;;;;;;;;5024498;28;20029;-64
2022/09/16 08:17:51;;;;;;;7.82;4.18;;;;;;;;;;5027138;28;20041;-64
2022/09/16 08:20:17;;;;;;;5.80;4.00;;;;;;;;;;5028205;28;20033;-64
2022/09/16 08:22:42;;;;;;;9.30;4.32;;;;;;;;;;5027037;28;20139;-63
2022/09/16 08:25:08;;;;;;;8.02;3.60;;;;;;;;;;5028314;28;20032;-63
2022/09/16 08:27:34;;;;;;;8.52;3.50;;;;;;;;;;5028004;28;20092;-63
2022/09/16 08:30:00;;;;;;;7.28;3.40;;;;;;;;;;5027280;28;20032;-62
2022/09/16 08:32:25;;;;;;;9.48;3.33;;;;;;;;;;5021539;28;20025;-62
2022/09/16 08:34:52;;;;;;;6.10;3.05;;;;;;;;;;5030417;28;20043;-62
2022/09/16 08:37:17;;;;;;;6.50;3.03;;;;;;;;;;5039347;28;20041;-62
2022/09/16 08:39:43;;;;;;;11.77;3.80;;;;;;;;;;5030993;28;20047;-62
2022/09/16 08:42:29;;;;;;;5.72;3.55;;;;;;;;;;5029990;28;20132;-65
2022/09/16 08:45:19;;;;;;;7.07;3.83;;;;;;;;;;5026893;28;20479;-63
2022/09/16 08:47:47;;;;;;;8.10;3.40;;;;;;;;;;5028014;28;20029;-64
2022/09/16 08:50:36;;;;;;;5.00;2.83;;;;;;;;;;5028673;28;20025;-64
2022/09/16 08:53:09;;;;;;;5.65;3.22;;;;;;;;;;5024475;28;20025;-63
2022/09/16 08:55:39;;;;;;;7.43;3.22;;;;;;;;;;5027141;28;20018;-63
2022/09/16 08:58:30;;;;;;;7.05;3.53;;;;;;;;;;5027996;28;20082;-64
2022/09/16 09:00:59;;;;;;;7.53;3.20;;;;;;;;;;5027537;28;20034;-63
2022/09/16 09:03:37;;;;;;;6.43;3.28;;;;;;;;;;5026424;28;20422;-63
2022/09/16 09:06:39;;;;;;;5.07;3.13;;;;;;;;;;5024524;28;20115;-62
2022/09/16 09:09:26;;;;;;;8.05;3.20;;;;;;;;;;5029257;28;20053;-62
2022/09/16 09:12:32;;;;;;;4.53;2.40;;;;;;;;;;5028155;28;20040;-61
2022/09/16 09:15:05;;;;;;;6.75;2.55;;;;;;;;;;5030368;28;20037;-61
2022/09/16 09:17:54;;;;;;;3.90;2.63;;;;;;;;;;5031806;28;20033;-60
2022/09/16 09:20:47;;;;;;;4.40;2.80;;;;;;;;;;5030996;28;20040;-60
2022/09/16 09:23:21;;;;;;;3.72;2.90;;;;;;;;;;5031074;28;20030;-61
2022/09/16 09:25:46;;;;;;;3.33;2.55;;;;;;;;;;5031987;28;20029;-60
2022/09/16 09:28:34;;;;;;;4.00;2.50;;;;;;;;;;5033168;28;20040;-60
2022/09/16 09:31:03;;;;;;;4.93;3.30;;;;;;;;;;5040216;28;20033;-61
2022/09/16 09:33:37;;;;;;;5.88;3.03;;;;;;;;;;5031457;28;20414;-62
2022/09/16 09:36:35;;;;;;;4.05;2.92;;;;;;;;;;5027697;28;20024;-62
2022/09/16 09:39:10;;;;;;;6.50;4.10;;;;;;;;;;5032407;28;20029;-63
2022/09/16 09:41:35;;;;;;;6.10;3.17;;;;;;;;;;5034580;28;20535;-62
2022/09/16 09:44:07;;;;;;;7.18;3.70;;;;;;;;;;5031714;28;20068;-62
2022/09/16 09:46:38;;;;;;;5.07;4.05;;;;;;;;;;5031963;28;20036;-62
2022/09/16 09:49:12;;;;;;;6.22;3.90;;;;;;;;;;5032691;28;20416;-62
2022/09/16 09:52:02;;;;;;;6.75;3.65;;;;;;;;;;5030688;28;20029;-61
2022/09/16 09:54:30;;;;;;;12.65;6.40;;;;;;;;;;5031228;28;20029;-61
2022/09/16 09:57:15;;;;;;;6.72;4.35;;;;;;;;;;5031630;28;20513;-60
2022/09/16 09:59:54;;;;;;;5.93;3.60;;;;;;;;;;5030693;28;20174;-61
2022/09/16 10:02:21;;;;;;;8.30;3.45;;;;;;;;;;5030985;28;20112;-61
2022/09/16 10:04:47;;;;;;;6.22;3.83;;;;;;;;;;5031709;28;20433;-61
2022/09/16 10:07:16;;;;;;;4.97;3.70;;;;;;;;;;5027091;28;20029;-61
2022/09/16 10:09:53;;;;;;;5.43;3.55;;;;;;;;;;5031696;28;20021;-61
2022/09/16 10:12:33;;;;;;;4.80;3.58;;;;;;;;;;5027854;28;20033;-61
2022/09/16 10:14:59;;;;;;;;;;;;;;;;;;5030501;28;20067;-61
2022/09/16 10:17:25;;;;;;;5.38;3.80;;;;;;;;;;5030910;28;19917;-60
2022/09/16 10:20:00;;;;;;;6.13;3.88;;;;;;;;;;5030886;28;20117;-60
2022/09/16 10:22:28;;;;;;;5.18;3.70;;;;;;;;;;5026867;28;20068;-60
2022/09/16 10:24:59;;;;;;;4.07;3.40;;;;;;;;;;5030153;28;20029;-60
2022/09/16 10:27:34;;;;;;;5.63;3.83;;;;;;;;;;5030474;28;20060;-59
2022/09/16 10:30:18;;;;;;;6.53;3.83;;;;;;;;;;5031074;28;20262;-59
2022/09/16 10:32:48;;;;;;;5.45;3.75;;;;;;;;;;5028752;28;20307;-59
2022/09/16 10:35:21;;;;;;;7.90;4.28;;;;;;;;;;5026354;28;20530;-59
2022/09/16 10:37:55;;;;;;;5.82;4.20;;;;;;;;;;5029063;28;20031;-59
2022/09/16 10:40:22;;;;;;;6.07;4.30;;;;;;;;;;5028676;28;20029;-59
2022/09/16 10:42:50;;;;;;;6.60;3.65;;;;;;;;;;5028610;28;20055;-59
2022/09/16 10:45:18;;;;;;;7.05;4.30;;;;;;;;;;5030037;28;20487;-59
2022/09/16 10:47:50;;;;;;;7.45;4.75;;;;;;;;;;5031607;28;20026;-59
2022/09/16 10:50:18;;;;;;;7.55;4.10;;;;;;;;;;5029848;28;20117;-59
2022/09/16 10:52:46;;;;;;;4.22;3.60;;;;;;;;;;5028186;28;20072;-59
2022/09/16 10:55:35;;;;;;;7.22;4.10;;;;;;;;;;5028248;28;20483;-59
2022/09/16 10:58:17;;;;;;;5.63;3.83;;;;;;;;;;5031138;28;20057;-59
2022/09/16 11:01:06;;;;;;;5.05;3.72;;;;;;;;;;5029040;28;20064;-59
2022/09/16 11:03:34;;;;;;;;;;;;;;;;;;5029415;28;20441;-59
2022/09/16 11:06:21;;;;;;;6.05;3.80;;;;;;;;;;5029749;28;20430;-59
2022/09/16 11:08:49;;;;;;;5.72;3.65;;;;;;;;;;5026908;28;20332;-58
2022/09/16 11:11:40;;;;;;;5.07;3.60;;;;;;;;;;5029890;28;20034;-59
2022/09/16 11:14:09;;;;;;;6.63;3.50;;;;;;;;;;5029101;28;20032;-59
2022/09/16 11:16:46;;;;;;;5.10;3.33;;;;;;;;;;5028652;28;20152;-59
2022/09/16 11:19:27;;;;;;;14.77;3.90;;;;;;;;;;5028466;28;20071;-59
2022/09/16 11:22:10;;;;;;;11.10;4.13;;;;;;;;;;5026349;28;20109;-58
2022/09/16 11:24:44;;;;;;;7.07;3.80;;;;;;;;;;5027931;28;20071;-58
2022/09/16 11:27:41;;;;;;;6.78;3.42;;;;;;;;;;5027372;28;20028;-58
2022/09/16 11:30:17;;;;;;;5.53;3.35;;;;;;;;;;5007081;28;20063;-58
2022/09/16 11:33:01;;;;;;;4.90;3.20;;;;;;;;;;5026638;28;20029;-58
2022/09/16 11:36:00;;;;;;;6.47;3.50;;;;;;;;;;5027227;28;20025;-58
2022/09/16 11:38:48;;;;;;;;;;;;;;;;;;5026103;28;20060;-58
2022/09/16 11:41:14;;;;;;;5.18;3.30;;;;;;;;;;5016453;28;20446;-58
2022/09/16 11:43:51;;;;;;;3.83;2.92;;;;;;;;;;5026040;28;20040;-59
2022/09/16 11:46:49;;;;;;;8.13;3.97;;;;;;;;;;5026428;28;20507;-58
2022/09/16 11:49:33;;;;;;;5.72;3.58;;;;;;;;;;5026597;28;20507;-58
2022/09/16 11:52:30;;;;;;;10.88;3.88;;;;;;;;;;5026954;28;20745;-58
2022/09/16 11:55:14;;;;;;;5.78;3.60;;;;;;;;;;5028082;28;20478;-58
2022/09/16 11:57:44;;;;;;;5.10;3.10;;;;;;;;;;5026751;28;20031;-58
2022/09/16 12:00:12;;;;;;;3.83;2.92;;;;;;;;;;5025848;28;20033;-58
2022/09/16 12:03:23;;;;;;;6.63;4.07;;;;;;;;;;5025143;28;20025;-58
2022/09/16 12:05:53;;;;;;;8.88;3.70;;;;;;;;;;5025409;28;20041;-58
2022/09/16 12:08:23;;;;;;;6.25;3.78;;;;;;;;;;5025336;28;20080;-59
2022/09/16 12:10:53;;;;;;;6.50;3.42;;;;;;;;;;5027274;28;20045;-59
2022/09/16 12:13:36;;;;;;;7.13;3.53;;;;;;;;;;5025807;28;20029;-59
2022/09/16 12:16:07;;;;;;;5.35;4.07;;;;;;;;;;5027265;28;20377;-59
2022/09/16 12:18:41;;;;;;;4.38;3.95;;;;;;;;;;5033511;28;20139;-59
2022/09/16 12:21:22;;;;;;;3.95;3.50;;;;;;;;;;5031334;28;20032;-59
2022/09/16 12:23:54;;;;;;;12.73;3.97;;;;;;;;;;5028142;28;20617;-59
2022/09/16 12:26:26;;;;;;;8.02;4.05;;;;;;;;;;5028026;28;20115;-59
2022/09/16 12:28:58;;;;;;;10.60;5.88;;;;;;;;;;5027594;28;20052;-59
2022/09/16 12:31:32;;;;;;;9.63;4.40;;;;;;;;;;5027399;28;20730;-59
2022/09/16 12:34:18;;;;;;;6.35;3.60;;;;;;;;;;5028714;28;20040;-58
2022/09/16 12:37:04;;;;;;;7.70;4.10;;;;;;;;;;5028185;28;20028;-59
2022/09/16 12:39:29;;;;;;;6.45;3.63;;;;;;;;;;5030715;28;20033;-59
2022/09/16 12:42:00;;;;;;;4.95;3.22;;;;;;;;;;5025719;28;20036;-59
2022/09/16 12:45:17;;;;;;;6.85;2.88;;;;;;;;;;5028681;28;20520;-59
2022/09/16 12:47:55;;;;;;;5.55;3.28;;;;;;;;;;5017135;28;20051;-59
2022/09/16 12:50:24;;;;;;;6.13;3.30;;;;;;;;;;5026006;28;20514;-59
2022/09/16 12:53:10;;;;;;;7.07;3.22;;;;;;;;;;5028011;28;20037;-58
2022/09/16 12:56:18;;;;;;;5.10;3.30;;;;;;;;;;5028409;28;20029;-58
2022/09/16 12:58:43;;;;;;;4.30;2.95;;;;;;;;;;5026517;28;20052;-58
2022/09/16 13:01:18;;;;;;;6.75;2.75;;;;;;;;;;5027325;28;20025;-58
2022/09/16 13:03:52;;;;;;;5.93;2.67;;;;;;;;;;5027471;28;20533;-58
2022/09/16 13:06:25;;;;;;;9.15;3.13;;;;;;;;;;5029189;28;20030;-60
2022/09/16 13:08:52;;;;;;;5.72;3.00;;;;;;;;;;5026698;28;20057;-58
2022/09/16 13:11:27;;;;;;;7.90;2.97;;;;;;;;;;5027093;28;20037;-58
2022/09/16 13:13:56;;;;;;;5.82;2.80;;;;;;;;;;5027841;28;20581;-58
2022/09/16 13:16:33;;;;;;;6.43;2.72;;;;;;;;;;5027315;28;20558;-58
2022/09/16 13:19:33;;;;;;;4.35;2.60;;;;;;;;;;5027462;28;20053;-58
2022/09/16 13:22:16;;;;;;;4.93;2.40;;;;;;;;;;5026416;28;20029;-58
2022/09/16 13:24:48;;;;;;;11.13;3.58;;;;;;;;;;5028114;28;20392;-54
2022/09/16 13:27:24;;;;;;;7.72;2.60;;;;;;;;;;5027841;28;20025;-59
2022/09/16 13:29:49;;;;;;;3.97;2.63;;;;;;;;;;5028773;28;20025;-60
2022/09/16 13:32:39;;;;;;;4.53;2.65;;;;;;;;;;5026295;28;20033;-59
2022/09/16 13:35:21;;;;;;;7.40;3.55;;;;;;;;;;5026260;28;20031;-59
2022/09/16 13:37:49;;;;;;;5.22;2.95;;;;;;;;;;5026914;28;20033;-58
2022/09/16 13:40:17;;;;;;;7.65;2.92;;;;;;;;;;5027143;28;20053;-58
2022/09/16 13:42:43;;;;;;;7.68;2.83;;;;;;;;;;5024370;28;20547;-59
2022/09/16 13:45:30;;;;;;;5.53;2.28;;;;;;;;;;5028463;28;20104;-59
2022/09/16 13:47:55;;;;;;;5.05;2.42;;;;;;;;;;5028397;28;20041;-59
2022/09/16 13:50:24;;;;;;;4.85;2.80;;;;;;;;;;5027750;28;20120;-59
2022/09/16 13:52:51;;;;;;;5.28;2.53;;;;;;;;;;5027941;28;20104;-59
2022/09/16 13:55:25;;;;;;;5.30;2.20;;;;;;;;;;5030105;28;20047;-59
2022/09/16 13:58:01;;;;;;;4.47;2.30;;;;;;;;;;5035369;28;20079;-59
2022/09/16 14:00:53;;;;;;;4.32;2.33;;;;;;;;;;5030689;28;20022;-61
2022/09/16 14:03:33;;;;;;;8.40;3.42;;;;;;;;;;5029820;28;20056;-61
2022/09/16 14:06:17;;;;;;;9.00;2.72;;;;;;;;;;5028700;28;20410;-61
2022/09/16 14:08:57;;;;;;;7.18;3.15;;;;;;;;;;5029377;28;20029;-61
2022/09/16 14:11:48;;;;;;;6.88;2.75;;;;;;;;;;5028195;28;20358;-60
2022/09/16 14:14:21;;;;;;;5.00;2.65;;;;;;;;;;5029861;28;20033;-60
2022/09/16 14:16:47;;;;;;;6.30;2.80;;;;;;;;;;5030264;28;20052;-61
2022/09/16 14:19:30;;;;;;;5.47;2.38;;;;;;;;;;5030607;28;20061;-61
2022/09/16 14:22:12;;;;;;;5.10;2.50;;;;;;;;;;5028571;28;21697;-60
2022/09/16 14:24:39;;;;;;;7.13;2.60;;;;;;;;;;5028872;28;20041;-61
2022/09/16 14:27:17;;;;;;;6.93;2.95;;;;;;;;;;5031143;28;20029;-60
2022/09/16 14:29:59;;;;;;;7.47;3.15;;;;;;;;;;5029839;28;20041;-59
2022/09/16 14:32:28;;;;;;;6.95;3.88;;;;;;;;;;5027189;28;20116;-59
2022/09/16 14:34:56;;;;;;;6.05;3.22;;;;;;;;;;5030219;28;20495;-59
2022/09/16 14:37:25;;;;;;;6.57;3.03;;;;;;;;;;5030376;28;20680;-59
2022/09/16 14:39:51;;;;;;;6.55;3.05;;;;;;;;;;5030568;28;20026;-58
2022/09/16 14:42:20;;;;;;;3.10;2.38;;;;;;;;;;5027618;28;20398;-59
2022/09/16 14:44:49;;;;;;;7.15;2.85;;;;;;;;;;5028251;28;20470;-59
2022/09/16 14:47:23;;;;;;;5.95;2.55;;;;;;;;;;5029045;28;20033;-59
2022/09/16 14:50:00;;;;;;;3.28;2.45;;;;;;;;;;5029369;28;20038;-59
2022/09/16 14:52:28;;;;;;;5.28;2.70;;;;;;;;;;5028664;28;20033;-60
2022/09/16 14:54:56;;;;;;;4.00;2.17;;;;;;;;;;5029225;28;20533;-59
2022/09/16 14:57:24;;;;;;;6.95;3.65;;;;;;;;;;5029270;28;20392;-61
2022/09/16 14:59:53;;;;;;;4.20;2.70;;;;;;;;;;5029409;28;20032;-62
2022/09/16 15:02:24;;;;;;;4.05;2.65;;;;;;;;;;5029098;28;20033;-59
2022/09/16 15:05:11;;;;;;;6.13;2.28;;;;;;;;;;5028475;28;20037;-59
2022/09/16 15:07:40;;;;;;;3.20;2.50;;;;;;;;;;5020491;28;20128;-59